Time;durP1;ratioP1;P1;durP2;ratioP2;P2;SDS_P1;SDS_P2;PMS_P1;PMS_P2;Temp;Humidity;BMP_temperature;BMP_pressure;BME280_temperature;BME280_humidity;BME280_pressure;Samples;Min_cycle;Max_cycle;Signal;HPM_P1;HPM_P2
2022/04/03 00:01:12;;;;;;;;;14.50;14.50;;;;;;;;5086691;27;46676;-84
2022/04/03 00:03:38;;;;;;;;;19.25;13.50;;;;;;;;5084726;27;45829;-84
2022/04/03 00:06:03;;;;;;;;;14.75;14.75;;;;;;;;5081521;27;45568;-84
2022/04/03 00:08:31;;;;;;;;;15.25;14.00;;;;;;;;5080556;27;45508;-80
2022/04/03 00:10:56;;;;;;;;;16.00;15.00;;;;;;;;5082208;27;45456;-83
2022/04/03 00:13:21;;;;;;;;;14.50;13.50;;;;;;;;5082892;27;45356;-84
2022/04/03 00:15:46;;;;;;;;;17.25;16.00;;;;;;;;5082516;27;46352;-83
2022/04/03 00:18:12;;;;;;;;;23.25;19.50;;;;;;;;5087601;27;45455;-83
2022/04/03 00:20:37;;;;;;;;;25.25;21.50;;;;;;;;5080947;27;45355;-85
2022/04/03 00:23:03;;;;;;;;;17.00;17.00;;;;;;;;5081741;27;45404;-85
2022/04/03 00:25:28;;;;;;;;;23.25;20.75;;;;;;;;5083197;27;46187;-85
2022/04/03 00:27:53;;;;;;;;;25.00;23.25;;;;;;;;5110641;27;45547;-85
2022/04/03 00:30:18;;;;;;;;;24.75;22.25;;;;;;;;5112559;27;45564;-85
2022/04/03 00:32:44;;;;;;;;;23.75;20.00;;;;;;;;5083153;27;45455;-85
2022/04/03 00:35:09;;;;;;;;;23.50;20.75;;;;;;;;5082016;27;47307;-84
2022/04/03 00:37:35;;;;;;;;;23.50;20.00;;;;;;;;5080939;27;45460;-84
2022/04/03 00:40:00;;;;;;;;;20.50;19.00;;;;;;;;5078185;27;46827;-84
2022/04/03 00:42:26;;;;;;;;;23.25;19.50;;;;;;;;5078113;27;45430;-84
2022/04/03 00:44:51;;;;;;;;;22.25;19.25;;;;;;;;5080160;27;45335;-83
2022/04/03 00:47:17;;;;;;;;;24.00;19.25;;;;;;;;5079142;27;45400;-83
2022/04/03 00:49:42;;;;;;;;;17.25;17.00;;;;;;;;5082900;27;45661;-84
2022/04/03 00:52:08;;;;;;;;;19.25;15.75;;;;;;;;5078320;27;45481;-82
2022/04/03 00:54:33;;;;;;;;;19.50;19.50;;;;;;;;5078251;27;46267;-83
2022/04/03 00:56:59;;;;;;;;;19.25;16.75;;;;;;;;5093666;27;45370;-83
2022/04/03 00:59:25;;;;;;;;;17.50;16.25;;;;;;;;5087692;27;45743;-83
2022/04/03 01:01:50;;;;;;;;;19.75;18.50;;;;;;;;5090153;27;45658;-85
2022/04/03 01:04:15;;;;;;;;;17.25;15.00;;;;;;;;5084548;27;45513;-84
2022/04/03 01:06:41;;;;;;;;;17.75;14.50;;;;;;;;5076928;27;45540;-83
2022/04/03 01:09:06;;;;;;;;;15.50;15.50;;;;;;;;5095122;27;45913;-84
2022/04/03 01:11:31;;;;;;;;;15.00;14.00;;;;;;;;5092199;27;45577;-84
2022/04/03 01:13:57;;;;;;;;;17.50;15.75;;;;;;;;5076931;27;46235;-84
2022/04/03 01:16:22;;;;;;;;;16.25;15.50;;;;;;;;5076300;27;45307;-83
2022/04/03 01:18:49;;;;;;;;;14.25;13.50;;;;;;;;5075200;27;45763;-83
2022/04/03 01:21:16;;;;;;;;;15.50;15.50;;;;;;;;5076567;27;45413;-84
2022/04/03 01:23:41;;;;;;;;;13.25;13.00;;;;;;;;5075031;27;48010;-84
2022/04/03 01:26:06;;;;;;;;;14.50;14.50;;;;;;;;5075555;27;45583;-83
2022/04/03 01:28:32;;;;;;;;;15.50;14.25;;;;;;;;5076512;27;45423;-84
2022/04/03 01:30:57;;;;;;;;;12.75;12.75;;;;;;;;5076294;27;45464;-83
2022/04/03 01:33:23;;;;;;;;;17.25;16.50;;;;;;;;5076152;27;45465;-83
2022/04/03 01:35:48;;;;;;;;;14.00;13.00;;;;;;;;5076408;27;45386;-84
2022/04/03 01:38:14;;;;;;;;;18.25;16.00;;;;;;;;5075549;27;45413;-84
2022/04/03 01:40:39;;;;;;;;;11.75;10.75;;;;;;;;5074768;27;45631;-84
2022/04/03 01:43:06;;;;;;;;;17.50;16.50;;;;;;;;5076072;27;45469;-83
2022/04/03 01:45:31;;;;;;;;;16.25;14.25;;;;;;;;5075233;27;45524;-82
2022/04/03 01:47:57;;;;;;;;;13.50;13.50;;;;;;;;5074748;27;45409;-83
2022/04/03 01:50:22;;;;;;;;;14.25;14.25;;;;;;;;5076211;27;45319;-83
2022/04/03 01:52:47;;;;;;;;;18.75;13.75;;;;;;;;5074064;27;47622;-83
2022/04/03 01:55:12;;;;;;;;;17.00;17.00;;;;;;;;5075628;27;45419;-84
2022/04/03 01:57:38;;;;;;;;;27.25;24.75;;;;;;;;5076094;27;45536;-84
2022/04/03 02:00:06;;;;;;;;;12.00;11.25;;;;;;;;5074926;27;45503;-83
2022/04/03 02:02:31;;;;;;;;;17.50;14.75;;;;;;;;5076032;27;46535;-83
2022/04/03 02:04:56;;;;;;;;;18.25;15.00;;;;;;;;5075135;27;45422;-83
2022/04/03 02:07:21;;;;;;;;;17.25;13.50;;;;;;;;5077373;27;45275;-83
2022/04/03 02:09:47;;;;;;;;;15.50;14.00;;;;;;;;5076844;27;45398;-84
2022/04/03 02:12:12;;;;;;;;;17.25;14.25;;;;;;;;5075976;27;47143;-83
2022/04/03 02:14:38;;;;;;;;;14.50;14.50;;;;;;;;5074862;27;45419;-83
2022/04/03 02:17:03;;;;;;;;;16.00;14.75;;;;;;;;5075232;27;45497;-85
2022/04/03 02:19:28;;;;;;;;;17.50;16.00;;;;;;;;5077317;27;45514;-84
2022/04/03 02:21:53;;;;;;;;;18.00;17.25;;;;;;;;5076618;27;45606;-83
2022/04/03 02:24:19;;;;;;;;;13.00;12.00;;;;;;;;5075195;27;49529;-84
2022/04/03 02:26:44;;;;;;;;;15.00;12.50;;;;;;;;5076009;27;45512;-85
2022/04/03 02:29:09;;;;;;;;;14.00;12.25;;;;;;;;5074868;27;45288;-84
2022/04/03 02:31:35;;;;;;;;;20.25;16.25;;;;;;;;5076944;27;46111;-84
2022/04/03 02:34:01;;;;;;;;;17.00;13.75;;;;;;;;5075376;27;45811;-85
2022/04/03 02:36:26;;;;;;;;;9.75;9.75;;;;;;;;5077604;27;45423;-85
2022/04/03 02:38:51;;;;;;;;;14.00;13.00;;;;;;;;5090929;27;45455;-84
2022/04/03 02:41:17;;;;;;;;;16.25;13.00;;;;;;;;5073324;27;48336;-84
2022/04/03 02:43:43;;;;;;;;;20.25;16.75;;;;;;;;5076824;27;45345;-84
2022/04/03 02:46:08;;;;;;;;;16.25;14.25;;;;;;;;5080828;27;45559;-85
2022/04/03 02:48:33;;;;;;;;;16.25;13.25;;;;;;;;5078366;27;45403;-84
2022/04/03 02:50:59;;;;;;;;;13.00;12.00;;;;;;;;5085192;27;45484;-85
2022/04/03 02:53:25;;;;;;;;;17.75;14.75;;;;;;;;5075027;27;45391;-85
2022/04/03 02:55:50;;;;;;;;;13.75;12.25;;;;;;;;5075015;27;45514;-85
2022/04/03 02:58:16;;;;;;;;;15.00;13.25;;;;;;;;5078880;27;45519;-85
2022/04/03 03:00:41;;;;;;;;;15.75;15.00;;;;;;;;5078557;27;45548;-85
2022/04/03 03:03:07;;;;;;;;;14.50;12.00;;;;;;;;5078683;27;45463;-85
2022/04/03 03:05:33;;;;;;;;;13.75;13.00;;;;;;;;5079544;27;45524;-83
2022/04/03 03:07:58;;;;;;;;;18.00;17.25;;;;;;;;5081445;27;45483;-84
2022/04/03 03:10:24;;;;;;;;;18.00;15.25;;;;;;;;5077963;27;46575;-84
2022/04/03 03:12:50;;;;;;;;;17.00;14.75;;;;;;;;5076941;27;45528;-84
2022/04/03 03:15:16;;;;;;;;;15.50;14.75;;;;;;;;5081254;27;45488;-84
2022/04/03 03:17:41;;;;;;;;;13.00;12.25;;;;;;;;5077130;27;45395;-84
2022/04/03 03:20:07;;;;;;;;;15.50;15.50;;;;;;;;5077830;27;45613;-84
2022/04/03 03:22:33;;;;;;;;;17.00;14.00;;;;;;;;5077702;27;45428;-84
2022/04/03 03:24:59;;;;;;;;;11.75;11.75;;;;;;;;5078351;27;45335;-85
2022/04/03 03:27:24;;;;;;;;;13.00;13.00;;;;;;;;5078900;27;45383;-84
2022/04/03 03:29:49;;;;;;;;;19.00;15.50;;;;;;;;5079978;27;45384;-84
2022/04/03 03:32:14;;;;;;;;;12.25;11.75;;;;;;;;5076302;27;45486;-84
2022/04/03 03:34:39;;;;;;;;;15.50;13.50;;;;;;;;5078960;27;45497;-85
2022/04/03 03:37:05;;;;;;;;;12.50;12.50;;;;;;;;5080415;27;45476;-85
2022/04/03 03:39:30;;;;;;;;;14.75;11.00;;;;;;;;5088753;27;46269;-85
2022/04/03 03:41:56;;;;;;;;;14.00;14.00;;;;;;;;5078611;27;45441;-85
2022/04/03 03:44:22;;;;;;;;;16.75;13.00;;;;;;;;5076646;27;45319;-85
2022/04/03 03:46:47;;;;;;;;;17.75;17.00;;;;;;;;5078550;27;45523;-83
2022/04/03 03:49:14;;;;;;;;;12.75;12.75;;;;;;;;5083517;27;45528;-83
2022/04/03 03:51:39;;;;;;;;;15.25;13.50;;;;;;;;5083710;27;45633;-85
2022/04/03 03:54:05;;;;;;;;;15.75;13.50;;;;;;;;5082143;27;45418;-82
2022/04/03 03:56:30;;;;;;;;;18.75;14.00;;;;;;;;5077735;27;45397;-83
2022/04/03 03:58:55;;;;;;;;;10.75;10.75;;;;;;;;5114815;27;47493;-83
2022/04/03 04:01:21;;;;;;;;;11.50;11.00;;;;;;;;5080947;27;45625;-84
2022/04/03 04:03:46;;;;;;;;;14.25;13.00;;;;;;;;5081249;27;45647;-84
2022/04/03 04:06:11;;;;;;;;;12.75;12.50;;;;;;;;5080956;27;45388;-83
2022/04/03 04:08:37;;;;;;;;;12.75;12.25;;;;;;;;5076020;27;47368;-84
2022/04/03 04:11:02;;;;;;;;;13.00;13.00;;;;;;;;5081846;27;45453;-87
2022/04/03 04:13:28;;;;;;;;;12.00;9.25;;;;;;;;5081465;27;45384;-84
2022/04/03 04:15:54;;;;;;;;;13.75;13.25;;;;;;;;5082724;27;45460;-84
2022/04/03 04:18:19;;;;;;;;;17.00;14.50;;;;;;;;5082486;27;46099;-85
2022/04/03 04:20:45;;;;;;;;;18.50;15.00;;;;;;;;5078070;27;45549;-85
2022/04/03 04:23:10;;;;;;;;;16.00;13.75;;;;;;;;5092183;27;45252;-85
2022/04/03 04:25:35;;;;;;;;;14.75;13.50;;;;;;;;5091630;27;45944;-85
2022/04/03 04:28:01;;;;;;;;;13.25;13.00;;;;;;;;5090421;27;45322;-85
2022/04/03 04:30:26;;;;;;;;;14.50;13.25;;;;;;;;5095351;27;45460;-85
2022/04/03 04:32:52;;;;;;;;;13.25;11.50;;;;;;;;5094256;27;45408;-84
2022/04/03 04:35:17;;;;;;;;;14.00;10.50;;;;;;;;5095961;27;45322;-84
2022/04/03 04:37:42;;;;;;;;;12.25;12.25;;;;;;;;5094901;27;46640;-84
2022/04/03 04:40:09;;;;;;;;;11.00;11.00;;;;;;;;5091974;27;45334;-84
2022/04/03 04:42:34;;;;;;;;;14.25;12.00;;;;;;;;5093871;27;45665;-84
2022/04/03 04:45:00;;;;;;;;;17.50;12.00;;;;;;;;5095254;27;45496;-84
2022/04/03 04:47:25;;;;;;;;;18.50;13.00;;;;;;;;5095035;27;46553;-84
2022/04/03 04:49:50;;;;;;;;;14.00;13.00;;;;;;;;5096659;27;45378;-84
2022/04/03 04:52:15;;;;;;;;;14.00;13.75;;;;;;;;5095145;27;45367;-84
2022/04/03 04:54:40;;;;;;;;;12.00;8.00;;;;;;;;5093748;27;45392;-85
2022/04/03 04:57:05;;;;;;;;;11.75;11.75;;;;;;;;5094798;27;46514;-85
2022/04/03 04:59:31;;;;;;;;;13.00;12.00;;;;;;;;5093513;27;46218;-84
2022/04/03 05:01:58;;;;;;;;;16.00;13.50;;;;;;;;5095611;27;45368;-84
2022/04/03 05:04:23;;;;;;;;;15.25;13.75;;;;;;;;5094337;27;45436;-85
2022/04/03 05:06:50;;;;;;;;;18.25;13.00;;;;;;;;5093197;27;47586;-84
2022/04/03 05:09:15;;;;;;;;;12.50;11.00;;;;;;;;5093334;27;46099;-84
2022/04/03 05:11:41;;;;;;;;;11.25;11.25;;;;;;;;5093514;27;45496;-84
2022/04/03 05:14:06;;;;;;;;;13.50;12.25;;;;;;;;5097143;27;45546;-84
2022/04/03 05:16:31;;;;;;;;;9.50;9.00;;;;;;;;5092862;27;47271;-85
2022/04/03 05:18:57;;;;;;;;;13.50;11.25;;;;;;;;5090974;27;46052;-84
2022/04/03 05:21:22;;;;;;;;;13.75;12.75;;;;;;;;5091066;27;45465;-84
2022/04/03 05:23:49;;;;;;;;;18.00;11.25;;;;;;;;5094553;27;45480;-85
2022/04/03 05:26:15;;;;;;;;;15.50;14.50;;;;;;;;5095859;27;45649;-84
2022/04/03 05:28:41;;;;;;;;;11.00;11.00;;;;;;;;5094992;27;45318;-84
2022/04/03 05:31:06;;;;;;;;;16.00;12.25;;;;;;;;5094533;27;45519;-84
2022/04/03 05:33:32;;;;;;;;;17.75;13.50;;;;;;;;5092666;27;45562;-84
2022/04/03 05:35:57;;;;;;;;;16.00;13.25;;;;;;;;5092904;27;48625;-84
2022/04/03 05:38:23;;;;;;;;;13.75;12.75;;;;;;;;5093141;27;45389;-83
2022/04/03 05:40:48;;;;;;;;;14.50;14.50;;;;;;;;5094999;27;45480;-84
2022/04/03 05:43:13;;;;;;;;;13.25;12.25;;;;;;;;5092900;27;45470;-84
2022/04/03 05:45:38;;;;;;;;;14.50;12.00;;;;;;;;5093901;27;45558;-84
2022/04/03 05:48:05;;;;;;;;;9.00;9.00;;;;;;;;5092496;27;45402;-84
2022/04/03 05:50:30;;;;;;;;;12.25;11.75;;;;;;;;5092963;27;45274;-84
2022/04/03 05:52:55;;;;;;;;;14.50;11.50;;;;;;;;5096229;27;45436;-84
2022/04/03 05:55:21;;;;;;;;;18.00;15.25;;;;;;;;5093857;27;46135;-84
2022/04/03 05:57:48;;;;;;;;;14.75;12.50;;;;;;;;5092261;27;45506;-85
2022/04/03 06:00:14;;;;;;;;;15.75;14.25;;;;;;;;5091089;27;45351;-84
2022/04/03 06:02:51;;;;;;;;;13.00;13.00;;;;;;;;5092399;27;45351;-85
2022/04/03 06:05:17;;;;;;;;;15.50;13.75;;;;;;;;5092178;27;46225;-85
2022/04/03 06:07:42;;;;;;;;;13.25;11.00;;;;;;;;5093413;27;45381;-85
2022/04/03 06:10:08;;;;;;;;;11.75;11.75;;;;;;;;5092600;27;45670;-84
2022/04/03 06:12:33;;;;;;;;;13.25;13.25;;;;;;;;5093776;27;45463;-85
2022/04/03 06:14:58;;;;;;;;;15.50;15.50;;;;;;;;5092487;27;47527;-85
2022/04/03 06:17:23;;;;;;;;;12.50;12.50;;;;;;;;5092834;27;45899;-85
2022/04/03 06:19:49;;;;;;;;;18.50;12.75;;;;;;;;5095872;27;45409;-85
2022/04/03 06:22:14;;;;;;;;;11.75;11.75;;;;;;;;5093648;27;45371;-84
2022/04/03 06:24:39;;;;;;;;;16.25;14.75;;;;;;;;5091878;27;48321;-84
2022/04/03 06:27:05;;;;;;;;;16.00;15.25;;;;;;;;5093580;27;45426;-84
2022/04/03 06:29:31;;;;;;;;;15.75;14.75;;;;;;;;5093639;27;45322;-84
2022/04/03 06:31:56;;;;;;;;;12.50;12.50;;;;;;;;5096491;27;45516;-84
2022/04/03 06:34:21;;;;;;;;;12.00;12.00;;;;;;;;5096800;27;45728;-84
2022/04/03 06:36:46;;;;;;;;;15.00;13.00;;;;;;;;5095593;27;45307;-84
2022/04/03 06:39:11;;;;;;;;;14.00;13.00;;;;;;;;5095874;27;45422;-83
2022/04/03 06:41:37;;;;;;;;;16.75;14.50;;;;;;;;5097426;27;45364;-84
2022/04/03 06:44:02;;;;;;;;;14.50;12.25;;;;;;;;5099238;27;45621;-84
2022/04/03 06:46:28;;;;;;;;;18.00;13.75;;;;;;;;5095537;27;45555;-84
2022/04/03 06:48:53;;;;;;;;;12.00;11.00;;;;;;;;5096613;27;45332;-84
2022/04/03 06:51:18;;;;;;;;;17.25;14.25;;;;;;;;5095615;27;45469;-84
2022/04/03 06:53:43;;;;;;;;;16.00;15.25;;;;;;;;5096843;27;46147;-84
2022/04/03 06:56:09;;;;;;;;;13.00;12.25;;;;;;;;5098840;27;45377;-84
2022/04/03 06:58:35;;;;;;;;;16.00;13.50;;;;;;;;5095480;27;46919;-84
2022/04/03 07:01:02;;;;;;;;;11.75;11.75;;;;;;;;5094313;27;45466;-84
2022/04/03 07:03:28;;;;;;;;;17.00;15.50;;;;;;;;5096653;27;45473;-84
2022/04/03 07:05:53;;;;;;;;;14.50;14.50;;;;;;;;5096769;27;47654;-84
2022/04/03 07:08:18;;;;;;;;;17.25;15.00;;;;;;;;5097643;27;45357;-84
2022/04/03 07:10:44;;;;;;;;;24.00;18.75;;;;;;;;5096640;27;45484;-83
2022/04/03 07:13:10;;;;;;;;;15.25;15.25;;;;;;;;5094423;27;47920;-84
2022/04/03 07:15:36;;;;;;;;;16.00;14.00;;;;;;;;5094476;27;45696;-84
2022/04/03 07:18:01;;;;;;;;;17.50;16.00;;;;;;;;5094115;27;45433;-84
2022/04/03 07:20:26;;;;;;;;;14.00;14.00;;;;;;;;5095343;27;45359;-84
2022/04/03 07:22:51;;;;;;;;;18.00;16.00;;;;;;;;5096770;27;46433;-84
2022/04/03 07:25:16;;;;;;;;;15.00;13.00;;;;;;;;5096006;27;45547;-84
2022/04/03 07:27:42;;;;;;;;;11.00;10.00;;;;;;;;5096276;27;45593;-84
2022/04/03 07:30:09;;;;;;;;;17.75;14.75;;;;;;;;5096123;27;45286;-84
2022/04/03 07:32:34;;;;;;;;;13.00;13.00;;;;;;;;5096361;27;46708;-84
2022/04/03 07:34:59;;;;;;;;;17.75;16.00;;;;;;;;5096965;27;46074;-85
2022/04/03 07:37:25;;;;;;;;;22.00;14.75;;;;;;;;5094839;27;45348;-84
2022/04/03 07:39:51;;;;;;;;;17.25;13.25;;;;;;;;5096070;27;45407;-84
2022/04/03 07:42:16;;;;;;;;;11.50;11.50;;;;;;;;5094047;27;48463;-85
2022/04/03 07:44:42;;;;;;;;;17.75;12.50;;;;;;;;5095249;27;45579;-84
2022/04/03 07:47:07;;;;;;;;;15.50;13.75;;;;;;;;5097643;27;45358;-83
2022/04/03 07:49:32;;;;;;;;;15.50;11.75;;;;;;;;5096505;27;45379;-83
2022/04/03 07:51:57;;;;;;;;;13.00;12.75;;;;;;;;5094930;27;45592;-83
2022/04/03 07:54:22;;;;;;;;;12.25;10.25;;;;;;;;5095555;27;45338;-83
2022/04/03 07:56:48;;;;;;;;;17.50;15.50;;;;;;;;5095670;27;45567;-83
2022/04/03 07:59:13;;;;;;;;;14.50;14.50;;;;;;;;5096523;27;45279;-82
2022/04/03 08:01:38;;;;;;;;;12.25;11.75;;;;;;;;5095426;27;46537;-83
2022/04/03 08:04:04;;;;;;;;;14.50;13.00;;;;;;;;5093640;27;46003;-82
2022/04/03 08:06:29;;;;;;;;;12.75;12.75;;;;;;;;5093736;27;45441;-82
2022/04/03 08:08:54;;;;;;;;;16.00;13.50;;;;;;;;5094393;27;45624;-82
2022/04/03 08:11:19;;;;;;;;;10.25;10.25;;;;;;;;5096317;27;45624;-82
2022/04/03 08:13:45;;;;;;;;;19.00;13.75;;;;;;;;5096678;27;45362;-83
2022/04/03 08:16:11;;;;;;;;;12.25;12.25;;;;;;;;5095127;27;45720;-82
2022/04/03 08:18:36;;;;;;;;;14.25;11.00;;;;;;;;5095540;27;45258;-82
2022/04/03 08:21:02;;;;;;;;;14.00;12.00;;;;;;;;5093435;27;47333;-82
2022/04/03 08:23:27;;;;;;;;;12.00;12.00;;;;;;;;5093492;27;46200;-83
2022/04/03 08:25:53;;;;;;;;;9.50;9.50;;;;;;;;5095497;27;45476;-83
2022/04/03 08:28:18;;;;;;;;;10.00;8.50;;;;;;;;5093060;27;45554;-84
2022/04/03 08:30:43;;;;;;;;;11.50;11.50;;;;;;;;5095215;27;45574;-83
2022/04/03 08:33:11;;;;;;;;;8.00;7.50;;;;;;;;5092611;27;45500;-82
2022/04/03 08:35:40;;;;;;;;;11.00;9.00;;;;;;;;5094560;27;45429;-83
2022/04/03 08:38:06;;;;;;;;;9.00;9.00;;;;;;;;5093342;27;45384;-82
2022/04/03 08:40:33;;;;;;;;;8.25;7.50;;;;;;;;5094186;27;45752;-84
2022/04/03 08:42:59;;;;;;;;;7.75;6.75;;;;;;;;5092619;27;46385;-83
2022/04/03 08:45:24;;;;;;;;;7.25;7.25;;;;;;;;5094121;27;45642;-83
2022/04/03 08:47:54;;;;;;;;;9.50;9.50;;;;;;;;5094467;27;47440;-82
2022/04/03 08:50:20;;;;;;;;;9.00;7.00;;;;;;;;5094294;27;45656;-83
2022/04/03 08:52:46;;;;;;;;;10.00;8.50;;;;;;;;5094815;27;45439;-82
2022/04/03 08:55:12;;;;;;;;;8.25;5.50;;;;;;;;5094440;27;45472;-84
2022/04/03 08:57:37;;;;;;;;;11.50;9.25;;;;;;;;5093564;27;45364;-84
2022/04/03 09:00:03;;;;;;;;;8.75;6.00;;;;;;;;5093679;27;48300;-83
2022/04/03 09:02:29;;;;;;;;;8.00;8.00;;;;;;;;5094809;27;45511;-84
2022/04/03 09:04:54;;;;;;;;;10.25;9.25;;;;;;;;5097027;27;45420;-84
2022/04/03 09:07:19;;;;;;;;;9.00;7.75;;;;;;;;5094587;27;45455;-82
2022/04/03 09:09:45;;;;;;;;;6.50;6.50;;;;;;;;5093493;27;45571;-82
2022/04/03 09:12:17;;;;;;;;;8.25;7.25;;;;;;;;5091891;27;45708;-82
2022/04/03 09:14:47;;;;;;;;;8.25;5.00;;;;;;;;5077784;27;45415;-82
2022/04/03 09:17:13;;;;;;;;;7.25;7.00;;;;;;;;5094789;27;45398;-81
2022/04/03 09:19:38;;;;;;;;;10.00;7.00;;;;;;;;5095204;27;45335;-82
2022/04/03 09:22:03;;;;;;;;;7.25;7.00;;;;;;;;5094435;27;45449;-81
2022/04/03 09:24:29;;;;;;;;;6.25;5.25;;;;;;;;5092560;27;45566;-81
2022/04/03 09:26:58;;;;;;;;;4.25;4.25;;;;;;;;5094486;27;45500;-82
2022/04/03 09:29:23;;;;;;;;;3.00;3.00;;;;;;;;5094477;27;45442;-81
2022/04/03 09:31:48;;;;;;;;;3.50;3.50;;;;;;;;5096156;27;45529;-81
2022/04/03 09:34:15;;;;;;;;;4.00;4.00;;;;;;;;5094302;27;45446;-81
2022/04/03 09:36:41;;;;;;;;;3.00;3.00;;;;;;;;5094149;27;45464;-81
2022/04/03 09:39:07;;;;;;;;;2.00;2.00;;;;;;;;5092990;27;46340;-81
2022/04/03 09:41:33;;;;;;;;;2.75;2.50;;;;;;;;5093775;27;45412;-81
2022/04/03 09:43:58;;;;;;;;;4.25;2.75;;;;;;;;5094416;27;45488;-81
2022/04/03 09:46:29;;;;;;;;;1.00;1.00;;;;;;;;5094031;27;45471;-81
2022/04/03 09:48:55;;;;;;;;;2.00;2.00;;;;;;;;5092509;27;47308;-82
2022/04/03 09:51:22;;;;;;;;;2.75;1.00;;;;;;;;5098646;27;45563;-81
2022/04/03 09:53:47;;;;;;;;;1.00;1.00;;;;;;;;5090628;27;45537;-81
2022/04/03 09:56:31;;;;;;;;;1.00;1.00;;;;;;;;5095460;27;45472;-82
2022/04/03 09:58:56;;;;;;;;;1.75;1.75;;;;;;;;5094868;27;48030;-84
2022/04/03 10:01:23;;;;;;;;;2.50;2.50;;;;;;;;5092590;27;45503;-83
2022/04/03 10:03:49;;;;;;;;;1.00;1.00;;;;;;;;5092632;27;45492;-83
2022/04/03 10:06:14;;;;;;;;;1.00;1.00;;;;;;;;5094824;27;45393;-82
2022/04/03 10:08:40;;;;;;;;;1.75;1.75;;;;;;;;5095624;27;48406;-82
2022/04/03 10:11:05;;;;;;;;;1.00;1.00;;;;;;;;5095494;27;45481;-82
2022/04/03 10:13:31;;;;;;;;;3.00;3.00;;;;;;;;5096340;27;45305;-82
2022/04/03 10:15:56;;;;;;;;;1.50;1.50;;;;;;;;5096292;27;45689;-82
2022/04/03 10:18:21;;;;;;;;;2.50;2.50;;;;;;;;5097093;27;46250;-82
2022/04/03 10:20:47;;;;;;;;;2.00;2.00;;;;;;;;5095056;27;45959;-81
2022/04/03 10:23:13;;;;;;;;;3.00;2.25;;;;;;;;5097030;27;45424;-82
2022/04/03 10:25:41;;;;;;;;;1.25;1.25;;;;;;;;5086135;27;45393;-83
2022/04/03 10:28:07;;;;;;;;;2.00;2.00;;;;;;;;5090936;27;46488;-82
2022/04/03 10:30:45;;;;;;;;;3.00;3.00;;;;;;;;5093090;27;45466;-82
2022/04/03 10:33:17;;;;;;;;;4.75;2.25;;;;;;;;5094601;27;45309;-82
2022/04/03 10:35:49;;;;;;;;;7.25;5.00;;;;;;;;5078865;27;45362;-82
2022/04/03 10:38:14;;;;;;;;;4.00;4.00;;;;;;;;5095786;27;48190;-82
2022/04/03 10:40:39;;;;;;;;;4.50;3.00;;;;;;;;5085843;27;45349;-82
2022/04/03 10:43:06;;;;;;;;;6.00;4.50;;;;;;;;5090540;27;45428;-82
2022/04/03 10:45:46;;;;;;;;;4.25;4.25;;;;;;;;5096062;27;45436;-82
2022/04/03 10:48:20;;;;;;;;;3.25;3.25;;;;;;;;5094497;27;46960;-82
2022/04/03 10:51:16;;;;;;;;;2.75;2.75;;;;;;;;5079805;27;46046;-82
2022/04/03 10:53:42;;;;;;;;;3.00;3.00;;;;;;;;5053923;28;45397;-81
2022/04/03 10:56:19;;;;;;;;;4.00;4.00;;;;;;;;5038462;28;45581;-81
2022/04/03 10:58:46;;;;;;;;;3.75;3.75;;;;;;;;5039401;28;48117;-81
2022/04/03 11:01:23;;;;;;;;;5.00;4.00;;;;;;;;5057193;28;45566;-82
2022/04/03 11:03:59;;;;;;;;;0.50;0.50;;;;;;;;5034638;28;45540;-81
2022/04/03 11:06:25;;;;;;;;;4.00;4.00;;;;;;;;5039119;28;45700;-82
2022/04/03 11:08:58;;;;;;;;;3.50;3.50;;;;;;;;5054404;28;45993;-82
2022/04/03 11:11:37;;;;;;;;;3.50;2.50;;;;;;;;5035300;28;46013;-81
2022/04/03 11:14:04;;;;;;;;;3.00;3.00;;;;;;;;5039876;28;45356;-82
2022/04/03 11:16:30;;;;;;;;;2.75;2.75;;;;;;;;5040947;28;45712;-82
2022/04/03 11:19:02;;;;;;;;;3.25;3.00;;;;;;;;5042207;28;47173;-82
2022/04/03 11:21:28;;;;;;;;;3.00;3.00;;;;;;;;5055013;28;45620;-82
2022/04/03 11:24:02;;;;;;;;;4.25;4.25;;;;;;;;5062801;28;45453;-81
2022/04/03 11:26:28;;;;;;;;;5.00;3.00;;;;;;;;5039757;28;45352;-82
2022/04/03 11:28:53;;;;;;;;;3.25;3.25;;;;;;;;5061832;28;45485;-82
2022/04/03 11:31:18;;;;;;;;;1.75;1.50;;;;;;;;5095899;27;45358;-82
2022/04/03 11:33:45;;;;;;;;;3.00;3.00;;;;;;;;5090470;27;45337;-82
2022/04/03 11:36:12;;;;;;;;;1.00;1.00;;;;;;;;5089673;27;45650;-81
2022/04/03 11:38:38;;;;;;;;;3.50;2.00;;;;;;;;5095585;27;45558;-81
2022/04/03 11:41:04;;;;;;;;;3.25;2.00;;;;;;;;5103121;27;45322;-82
2022/04/03 11:43:30;;;;;;;;;4.00;4.00;;;;;;;;5094235;27;45500;-82
2022/04/03 11:45:57;;;;;;;;;2.25;1.25;;;;;;;;5089465;27;45408;-81
2022/04/03 11:48:23;;;;;;;;;3.00;3.00;;;;;;;;5104713;27;48357;-81
2022/04/03 11:50:51;;;;;;;;;2.75;2.50;;;;;;;;5091977;27;45473;-84
2022/04/03 11:53:18;;;;;;;;;4.50;3.00;;;;;;;;5105025;27;45555;-83
2022/04/03 11:55:43;;;;;;;;;3.00;3.00;;;;;;;;5101398;27;45579;-84
2022/04/03 11:58:08;;;;;;;;;3.00;3.00;;;;;;;;5090741;27;45427;-78
2022/04/03 12:00:33;;;;;;;;;4.50;4.00;;;;;;;;5104642;27;45291;-78
2022/04/03 12:02:59;;;;;;;;;4.00;4.00;;;;;;;;5094443;27;45480;-79
2022/04/03 12:05:25;;;;;;;;;5.00;5.00;;;;;;;;5098856;27;45281;-80
2022/04/03 12:07:51;;;;;;;;;4.00;3.50;;;;;;;;5097521;27;45370;-80
2022/04/03 12:10:26;;;;;;;;;4.00;4.00;;;;;;;;5092585;27;45468;-79
2022/04/03 12:12:53;;;;;;;;;4.75;4.25;;;;;;;;5101816;27;47988;-79
2022/04/03 12:15:22;;;;;;;;;3.00;3.00;;;;;;;;5088871;27;45612;-79
2022/04/03 12:17:54;;;;;;;;;3.00;3.00;;;;;;;;5103809;27;46058;-80
2022/04/03 12:20:19;;;;;;;;;4.00;4.00;;;;;;;;5094781;27;49676;-80
2022/04/03 12:22:48;;;;;;;;;4.75;4.75;;;;;;;;5094388;27;45341;-80
2022/04/03 12:25:13;;;;;;;;;3.00;3.00;;;;;;;;5097258;27;45682;-79
2022/04/03 12:27:39;;;;;;;;;3.50;3.00;;;;;;;;5091698;27;45468;-81
2022/04/03 12:30:07;;;;;;;;;5.00;4.75;;;;;;;;5102166;27;45543;-78
2022/04/03 12:32:35;;;;;;;;;5.25;5.25;;;;;;;;5095218;27;45582;-80
2022/04/03 12:35:00;;;;;;;;;7.00;4.00;;;;;;;;5098126;27;45451;-79
2022/04/03 12:37:26;;;;;;;;;5.75;4.75;;;;;;;;5096868;27;46104;-80
2022/04/03 12:39:51;;;;;;;;;5.00;4.25;;;;;;;;5089140;27;45520;-80
2022/04/03 12:42:20;;;;;;;;;6.25;5.00;;;;;;;;5103214;27;45565;-80
2022/04/03 12:44:49;;;;;;;;;5.00;5.00;;;;;;;;5093600;27;45779;-80
2022/04/03 12:47:15;;;;;;;;;4.00;4.00;;;;;;;;5089667;27;46208;-79
2022/04/03 12:49:41;;;;;;;;;4.25;4.00;;;;;;;;5095203;27;45568;-79
2022/04/03 12:52:06;;;;;;;;;4.00;4.00;;;;;;;;5095788;27;45975;-80
2022/04/03 12:54:41;;;;;;;;;5.25;4.50;;;;;;;;5103309;27;45606;-79
2022/04/03 13:00:04;;;;;;;;;3.50;2.25;;;;;;;;5092023;27;45418;-80
2022/04/03 13:02:36;;;;;;;;;3.00;2.00;;;;;;;;5094704;27;45629;-80
2022/04/03 13:05:02;;;;;;;;;1.00;1.00;;;;;;;;5097961;27;45469;-81
2022/04/03 13:07:27;;;;;;;;;2.00;2.00;;;;;;;;5091790;27;46372;-81
2022/04/03 13:09:55;;;;;;;;;4.00;4.00;;;;;;;;5085162;27;45478;-80
2022/04/03 13:12:28;;;;;;;;;5.50;5.50;;;;;;;;5092105;27;46674;-81
2022/04/03 13:14:55;;;;;;;;;6.25;4.75;;;;;;;;5094691;27;45343;-80
2022/04/03 13:17:20;;;;;;;;;6.00;6.00;;;;;;;;5097453;27;47351;-81
2022/04/03 13:19:45;;;;;;;;;4.75;4.75;;;;;;;;5091968;27;45485;-81
2022/04/03 13:22:12;;;;;;;;;4.00;4.00;;;;;;;;5093745;27;45416;-81
2022/04/03 13:24:37;;;;;;;;;4.75;4.25;;;;;;;;5097635;27;45501;-80
2022/04/03 13:27:02;;;;;;;;;3.00;3.00;;;;;;;;5089935;27;45413;-81
2022/04/03 13:29:28;;;;;;;;;5.00;5.00;;;;;;;;5098841;27;45519;-80
2022/04/03 13:31:56;;;;;;;;;5.00;5.00;;;;;;;;5086998;27;45475;-82
2022/04/03 13:34:21;;;;;;;;;4.75;4.75;;;;;;;;5086467;27;45951;-80
2022/04/03 13:36:47;;;;;;;;;3.25;3.00;;;;;;;;5092508;27;45921;-82
2022/04/03 13:39:12;;;;;;;;;7.00;6.50;;;;;;;;5085323;27;45491;-82
2022/04/03 13:41:38;;;;;;;;;5.25;5.00;;;;;;;;5096345;27;45420;-82
2022/04/03 13:44:04;;;;;;;;;5.00;5.00;;;;;;;;5097003;27;45514;-83
2022/04/03 13:46:30;;;;;;;;;4.00;4.00;;;;;;;;5094427;27;45675;-82
2022/04/03 13:48:55;;;;;;;;;4.50;4.50;;;;;;;;5100606;27;45512;-82
2022/04/03 13:51:20;;;;;;;;;6.00;6.00;;;;;;;;5093913;27;45481;-83
2022/04/03 13:53:46;;;;;;;;;5.25;4.75;;;;;;;;5102658;27;45399;-83
2022/04/03 13:56:12;;;;;;;;;6.25;5.00;;;;;;;;5098547;27;45611;-83
2022/04/03 13:58:37;;;;;;;;;5.00;5.00;;;;;;;;5097822;27;45470;-80
2022/04/03 14:01:04;;;;;;;;;5.75;5.75;;;;;;;;5090242;27;45546;-81
2022/04/03 14:03:30;;;;;;;;;7.00;7.00;;;;;;;;5082776;27;45512;-82
2022/04/03 14:05:56;;;;;;;;;7.00;6.25;;;;;;;;5101569;27;46599;-80
2022/04/03 14:08:22;;;;;;;;;10.25;10.00;;;;;;;;5092629;27;45690;-81
2022/04/03 14:10:48;;;;;;;;;7.50;6.00;;;;;;;;5099745;27;45478;-81
2022/04/03 14:13:14;;;;;;;;;5.25;5.25;;;;;;;;5095993;27;45468;-90
2022/04/03 14:15:40;;;;;;;;;5.25;5.25;;;;;;;;5085428;27;48011;-89
2022/04/03 14:18:05;;;;;;;;;61.00;38.25;;;;;;;;5079614;27;45397;-85
2022/04/03 14:20:30;;;;;;;;;7.75;6.00;;;;;;;;5096815;27;45451;-92
2022/04/03 14:22:56;;;;;;;;;7.50;7.00;;;;;;;;5095595;27;45469;-86
2022/04/03 14:25:21;;;;;;;;;6.25;6.25;;;;;;;;5089738;27;47970;-88